Time;durP1;ratioP1;P1;durP2;ratioP2;P2;SDS_P1;SDS_P2;PMS_P1;PMS_P2;Temp;Humidity;BMP_temperature;BMP_pressure;BME280_temperature;BME280_humidity;BME280_pressure;Samples;Min_cycle;Max_cycle;Signal;HPM_P1;HPM_P2
2022/07/15 00:01:28;;;;;;;5.23;1.83;;;;;;;22.49;34.03;98233.66;8402400;28;20242;-76
2022/07/15 00:05:31;;;;;;;9.17;1.70;;;;;;;22.44;34.18;98234.88;8379981;28;20227;-76
2022/07/15 00:13:56;;;;;;;5.07;1.57;;;;;;;22.22;34.66;98229.81;8380407;28;20235;-76
2022/07/15 00:18:05;;;;;;;5.17;2.13;;;;;;;22.16;34.85;98225.94;8380682;28;20230;-76
2022/07/15 00:22:08;;;;;;;6.10;2.03;;;;;;;22.11;35.08;98227.28;8380196;28;20280;-76
2022/07/15 00:26:11;;;;;;;6.50;2.00;;;;;;;22.07;35.09;98226.72;8380609;28;20233;-76
2022/07/15 00:30:15;;;;;;;6.00;1.80;;;;;;;22.06;35.26;98225.88;8380522;28;20234;-76
2022/07/15 00:34:17;;;;;;;9.03;2.20;;;;;;;21.86;35.71;98222.34;8380480;28;20254;-76
2022/07/15 00:38:20;;;;;;;4.57;1.80;;;;;;;21.84;35.81;98221.66;8380080;28;20237;-76
2022/07/15 00:46:45;;;;;;;7.80;1.90;;;;;;;21.59;36.33;98232.63;8380138;28;20236;-76
2022/07/15 00:50:48;;;;;;;5.97;2.10;;;;;;;21.53;37.05;98238.41;8379620;28;20554;-76
2022/07/15 00:54:52;;;;;;;6.17;1.80;;;;;;;21.50;37.03;98230.78;8379870;28;20239;-76
2022/07/15 00:58:54;;;;;;;6.87;1.83;;;;;;;21.45;37.30;98231.16;8384986;28;20572;-76
2022/07/15 01:03:00;;;;;;;5.60;1.83;;;;;;;21.39;37.52;98227.22;8413146;28;20244;-76
2022/07/15 01:07:03;;;;;;;4.83;2.03;;;;;;;21.20;37.98;98229.75;8413035;28;20228;-76
2022/07/15 01:11:06;;;;;;;4.53;1.90;;;;;;;21.24;37.64;98228.53;8412964;28;20249;-76
2022/07/15 01:15:10;;;;;;;4.83;1.63;;;;;;;21.14;38.23;98244.25;8413373;28;20407;-76
2022/07/15 01:19:15;;;;;;;12.33;1.80;;;;;;;21.18;38.06;98248.31;8419435;28;20242;-77
2022/07/15 01:23:19;;;;;;;6.77;2.13;;;;;;;21.20;38.05;98245.53;8419493;28;20231;-76
2022/07/15 01:27:22;;;;;;;5.73;1.90;;;;;;;20.98;38.57;98238.59;8419125;28;20233;-76
2022/07/15 01:31:25;;;;;;;7.13;2.03;;;;;;;21.00;38.57;98241.91;8419080;28;20257;-76
2022/07/15 01:35:28;;;;;;;5.07;1.70;;;;;;;21.00;38.57;98242.78;8418756;28;20228;-76
2022/07/15 01:39:32;;;;;;;7.63;2.17;;;;;;;20.96;38.59;98240.50;8418507;28;20226;-76
2022/07/15 01:43:40;;;;;;;8.87;2.30;;;;;;;20.92;38.69;98233.84;8418597;28;20231;-76
2022/07/15 01:47:44;;;;;;;6.40;1.73;;;;;;;20.82;38.80;98239.84;8418592;28;20233;-76
2022/07/15 01:51:46;;;;;;;6.77;1.73;;;;;;;20.77;38.87;98249.09;8418051;28;20235;-76
2022/07/15 01:55:51;;;;;;;4.57;1.80;;;;;;;20.73;39.09;98237.16;8418214;28;20311;-75
2022/07/15 01:59:54;;;;;;;5.80;2.20;;;;;;;20.68;39.45;98242.78;8417634;28;20230;-75
2022/07/15 02:03:56;;;;;;;3.50;1.90;;;;;;;20.61;39.66;98245.06;8418182;28;20398;-76
2022/07/15 02:07:59;;;;;;;8.13;1.90;;;;;;;20.61;39.72;98247.72;8417759;28;20230;-76
2022/07/15 02:12:05;;;;;;;3.87;1.60;;;;;;;20.51;39.81;98252.84;8417688;28;20238;-76
2022/07/15 02:16:07;;;;;;;6.73;2.00;;;;;;;20.48;40.09;98247.00;8417477;28;20239;-76
2022/07/15 02:20:11;;;;;;;6.07;2.10;;;;;;;20.37;40.12;98245.25;8417454;28;20233;-76
2022/07/15 02:24:14;;;;;;;6.27;2.03;;;;;;;20.33;40.17;98245.59;8417336;28;20237;-76
2022/07/15 02:28:19;;;;;;;4.60;1.90;;;;;;;20.24;40.71;98248.00;8416346;28;20227;-76
2022/07/15 02:32:21;;;;;;;4.30;1.67;;;;;;;20.20;40.35;98251.84;8416992;28;20235;-76
2022/07/15 02:36:24;;;;;;;7.00;2.00;;;;;;;20.21;40.25;98257.94;8416948;28;20219;-77
2022/07/15 02:40:28;;;;;;;5.83;2.13;;;;;;;20.03;40.58;98258.44;8416423;28;20243;-76
2022/07/15 02:44:32;;;;;;;7.37;2.20;;;;;;;20.07;40.32;98253.78;8416555;28;20237;-76
2022/07/15 02:48:35;;;;;;;4.63;2.10;;;;;;;20.04;40.51;98256.63;8416505;28;20238;-76
2022/07/15 02:52:38;;;;;;;4.97;2.07;;;;;;;19.97;40.43;98260.69;8416453;28;20243;-76
2022/07/15 02:56:40;;;;;;;6.20;2.07;;;;;;;19.85;40.67;98270.38;8416262;28;20230;-76
2022/07/15 03:00:44;;;;;;;5.10;2.10;;;;;;;19.71;41.04;98269.63;8416093;28;20240;-76
2022/07/15 03:04:49;;;;;;;5.63;2.20;;;;;;;19.78;40.74;98267.41;8415545;28;20231;-75
2022/07/15 03:08:52;;;;;;;5.50;1.80;;;;;;;19.84;40.91;98279.22;8415763;28;20429;-75
2022/07/15 03:12:55;;;;;;;3.77;1.97;;;;;;;19.69;41.09;98284.66;8415632;28;20238;-76
2022/07/15 03:16:59;;;;;;;5.93;2.40;;;;;;;19.54;41.14;98285.84;8415707;28;20238;-76
2022/07/15 03:21:03;;;;;;;7.83;2.30;;;;;;;19.56;41.35;98281.31;8415543;28;20233;-76
2022/07/15 03:25:07;;;;;;;7.43;2.30;;;;;;;19.60;41.26;98287.16;8415206;28;20234;-76
2022/07/15 03:29:10;;;;;;;7.77;2.43;;;;;;;19.51;41.49;98293.94;8415304;28;20402;-76
2022/07/15 03:33:14;;;;;;;5.13;2.27;;;;;;;19.44;41.75;98292.72;8415110;28;20231;-76
2022/07/15 03:37:17;;;;;;;5.63;2.63;;;;;;;19.41;42.13;98304.31;8415417;28;20253;-76
2022/07/15 03:41:20;;;;;;;5.20;2.33;;;;;;;19.42;42.44;98300.75;8414688;28;20231;-77
2022/07/15 03:45:23;;;;;;;9.23;2.27;;;;;;;19.40;42.49;98312.28;8415132;28;20235;-76
2022/07/15 03:49:27;;;;;;;7.60;2.17;;;;;;;19.35;42.48;98302.16;8415053;28;20235;-76
2022/07/15 03:53:30;;;;;;;6.67;2.27;;;;;;;19.32;42.40;98313.72;8414651;28;20245;-77
2022/07/15 03:57:33;;;;;;;7.47;2.37;;;;;;;19.28;42.04;98311.44;8414631;28;20248;-76
2022/07/15 04:01:36;;;;;;;6.70;2.10;;;;;;;19.28;42.56;98309.63;8414581;28;20233;-76
2022/07/15 04:05:40;;;;;;;6.00;2.20;;;;;;;19.16;42.76;98312.34;8414476;28;20449;-78
2022/07/15 04:09:43;;;;;;;4.77;2.20;;;;;;;19.24;42.79;98318.69;8413980;28;20421;-77
2022/07/15 04:13:46;;;;;;;9.93;2.60;;;;;;;19.18;42.63;98320.97;8413825;28;20242;-77
2022/07/15 04:17:49;;;;;;;7.93;2.50;;;;;;;19.19;42.72;98333.13;8413425;28;20226;-77
2022/07/15 04:21:54;;;;;;;7.20;2.67;;;;;;;19.18;42.71;98329.66;8413833;28;20234;-77
2022/07/15 04:25:57;;;;;;;6.33;2.50;;;;;;;19.21;42.87;98329.44;8413781;28;20230;-77
2022/07/15 04:29:59;;;;;;;7.00;2.67;;;;;;;19.19;42.81;98333.97;8413426;28;20231;-77
2022/07/15 04:34:02;;;;;;;8.30;2.80;;;;;;;19.25;42.75;98336.13;8413522;28;20541;-77
2022/07/15 04:38:07;;;;;;;9.53;2.63;;;;;;;19.26;42.85;98340.41;8413336;28;20408;-77
2022/07/15 04:42:10;;;;;;;5.30;2.40;;;;;;;19.15;42.92;98332.50;8413190;28;20230;-77
2022/07/15 04:46:13;;;;;;;7.40;2.67;;;;;;;19.16;42.98;98330.72;8413427;28;20293;-77
2022/07/15 04:54:37;;;;;;;7.87;2.80;;;;;;;19.27;43.68;98328.16;8420355;28;20555;-77
2022/07/15 04:58:40;;;;;;;7.37;2.53;;;;;;;19.28;43.90;98335.88;8419857;28;21129;-80
2022/07/15 05:02:42;;;;;;;10.07;2.50;;;;;;;19.41;43.79;98340.25;8420074;28;20230;-80
2022/07/15 05:06:45;;;;;;;4.03;1.87;;;;;;;20.67;53.90;98347.19;8420493;28;20579;-80
2022/07/15 05:10:49;;;;;;;7.40;2.00;;;;;;;21.18;49.39;98350.19;8420448;28;20439;-79
2022/07/15 05:14:53;;;;;;;4.80;2.07;;;;;;;21.38;47.90;98346.75;8420005;28;20231;-81
2022/07/15 05:18:56;;;;;;;8.63;2.13;;;;;;;21.67;47.17;98346.97;8419774;28;20235;-80
2022/07/15 05:22:58;;;;;;;6.83;2.83;;;;;;;21.89;46.96;98344.31;8419430;28;20231;-79
2022/07/15 05:27:03;;;;;;;9.63;2.33;;;;;;;21.94;44.60;98347.41;8419529;28;20231;-79
2022/07/15 05:31:06;;;;;;;4.67;2.20;;;;;;;21.74;43.74;98351.72;8419360;28;20238;-75
2022/07/15 05:35:09;;;;;;;14.73;2.70;;;;;;;21.12;41.65;98354.16;8418982;28;20252;-74
2022/07/15 05:39:12;;;;;;;6.13;2.53;;;;;;;20.83;41.90;98353.88;8418431;28;20233;-76
2022/07/15 05:43:16;;;;;;;7.23;2.60;;;;;;;21.00;43.15;98360.41;8418667;28;20226;-76
2022/07/15 05:47:19;;;;;;;12.57;3.27;;;;;;;20.77;43.84;98360.47;8418378;28;20237;-78
2022/07/15 05:51:22;;;;;;;9.00;2.83;;;;;;;20.39;43.51;98359.06;8418339;28;20253;-77
2022/07/15 05:55:25;;;;;;;8.47;2.80;;;;;;;20.89;43.89;98354.22;8418208;28;20228;-77
2022/07/15 05:59:29;;;;;;;9.77;2.63;;;;;;;20.85;42.00;98360.69;8417937;28;20229;-77
2022/07/15 06:03:32;;;;;;;6.97;3.10;;;;;;;21.04;43.76;98367.94;8416885;28;20427;-77
2022/07/15 06:07:35;;;;;;;12.10;3.33;;;;;;;21.00;42.57;98370.94;8417709;28;20243;-76
2022/07/15 06:11:38;;;;;;;8.80;2.70;;;;;;;20.84;42.96;98368.69;8417281;28;20249;-77
2022/07/15 06:15:43;;;;;;;8.77;2.97;;;;;;;21.12;42.96;98377.03;8417486;28;20234;-76
2022/07/15 06:19:46;;;;;;;10.10;2.40;;;;;;;21.16;42.92;98378.44;8417440;28;20227;-77
2022/07/15 06:23:48;;;;;;;7.27;2.83;;;;;;;20.75;42.33;98374.69;8416780;28;20223;-76
2022/07/15 06:27:51;;;;;;;6.20;2.70;;;;;;;21.25;42.01;98378.53;8416860;28;20232;-76
2022/07/15 06:31:56;;;;;;;8.73;2.90;;;;;;;20.87;42.00;98371.94;8416894;28;20429;-76
2022/07/15 06:35:59;;;;;;;8.87;2.83;;;;;;;21.09;41.88;98383.34;8416703;28;20227;-76
2022/07/15 06:40:02;;;;;;;12.73;3.00;;;;;;;21.16;41.73;98384.53;8416511;28;20533;-76
2022/07/15 06:44:05;;;;;;;7.70;2.80;;;;;;;21.58;41.76;98384.63;8416023;28;20235;-76
2022/07/15 06:48:09;;;;;;;7.70;2.77;;;;;;;21.10;40.96;98385.03;8416204;28;20223;-76
2022/07/15 06:52:12;;;;;;;11.23;2.70;;;;;;;21.64;41.08;98386.75;8416169;28;20260;-77
2022/07/15 06:56:15;;;;;;;8.13;2.80;;;;;;;21.64;40.91;98384.13;8416179;28;20321;-76
2022/07/15 07:00:18;;;;;;;9.77;2.40;;;;;;;21.17;40.13;98390.63;8415586;28;20226;-76
2022/07/15 07:04:22;;;;;;;8.40;2.63;;;;;;;21.83;40.96;98385.22;8415796;28;20230;-76
2022/07/15 07:08:25;;;;;;;8.27;2.37;;;;;;;21.98;37.75;98393.63;8415707;28;20255;-75
2022/07/15 07:12:28;;;;;;;10.17;2.77;;;;;;;22.48;39.05;98393.78;8415306;28;20232;-75
2022/07/15 07:16:31;;;;;;;7.23;2.30;;;;;;;23.05;38.74;98383.53;8414531;28;20258;-76
2022/07/15 07:20:40;;;;;;;8.87;2.90;;;;;;;23.35;37.35;98377.31;8415066;28;20245;-76
2022/07/15 07:24:44;;;;;;;7.77;2.30;;;;;;;23.11;37.35;98384.78;8414986;28;20553;-76
2022/07/15 07:28:48;;;;;;;9.57;2.60;;;;;;;22.96;36.46;98386.97;8414543;28;20237;-75
2022/07/15 07:32:52;;;;;;;6.13;2.17;;;;;;;23.41;35.54;98382.03;8414793;28;20235;-78
2022/07/15 07:36:56;;;;;;;9.40;2.70;;;;;;;23.45;36.41;98387.03;8414994;28;20425;-77
2022/07/15 07:41:00;;;;;;;7.73;2.50;;;;;;;23.71;36.65;98379.38;8414608;28;20239;-76
2022/07/15 07:45:03;;;;;;;9.97;2.53;;;;;;;23.61;35.83;98377.56;8414512;28;20582;-76
2022/07/15 07:49:05;;;;;;;6.53;2.63;;;;;;;24.43;33.47;98385.91;8413995;28;20242;-78
2022/07/15 07:53:30;;;;;;;12.77;2.40;;;;;;;24.37;32.54;98382.03;8414467;28;20233;-77
2022/07/15 07:57:33;;;;;;;7.63;2.20;;;;;;;24.97;32.64;98378.09;8414661;28;20226;-77
2022/07/15 08:01:36;;;;;;;9.03;2.13;;;;;;;24.74;31.38;98375.88;8414271;28;20229;-76
2022/07/15 08:05:39;;;;;;;5.03;1.80;;;;;;;25.12;32.31;98373.94;8414243;28;20237;-76
2022/07/15 08:09:44;;;;;;;7.70;2.13;;;;;;;25.80;31.90;98372.59;8414244;28;20422;-77
2022/07/15 08:13:46;;;;;;;4.77;1.90;;;;;;;26.10;31.42;98376.63;8413953;28;20253;-77
2022/07/15 08:17:49;;;;;;;5.57;1.77;;;;;;;26.07;31.22;98373.44;8413878;28;20233;-75
2022/07/15 08:21:52;;;;;;;5.10;1.80;;;;;;;26.42;29.83;98369.81;8413852;28;20537;-75
2022/07/15 08:25:57;;;;;;;6.57;1.90;;;;;;;26.78;29.30;98369.63;8412995;28;20235;-78
2022/07/15 08:30:00;;;;;;;8.33;2.10;;;;;;;26.81;29.97;98368.50;8413568;28;20568;-76
2022/07/15 08:34:03;;;;;;;4.73;1.80;;;;;;;26.33;31.56;98360.13;8397380;28;20295;-76
2022/07/15 08:38:08;;;;;;;5.10;1.80;;;;;;;26.46;30.84;98359.69;8380154;28;20250;-76
2022/07/15 08:42:13;;;;;;;4.97;1.57;;;;;;;27.01;29.79;98356.56;8380502;28;20231;-76
2022/07/15 08:46:16;;;;;;;4.90;2.00;;;;;;;26.80;28.46;98351.72;8380384;28;20243;-76
2022/07/15 08:50:20;;;;;;;4.03;2.03;;;;;;;26.50;27.80;98345.09;8380465;28;20231;-76
2022/07/15 08:54:23;;;;;;;4.37;1.90;;;;;;;26.32;29.12;98354.00;8379946;28;20556;-76
2022/07/15 08:58:28;;;;;;;5.87;1.90;;;;;;;26.51;29.63;98363.53;8407954;28;20228;-77
2022/07/15 09:02:51;;;;;;;4.97;1.70;;;;;;;25.52;31.05;98362.09;8379146;28;20235;-78
2022/07/15 09:06:53;;;;;;;4.17;1.90;;;;;;;26.14;30.19;98359.41;8379785;28;20235;-77
2022/07/15 09:10:58;;;;;;;6.20;1.77;;;;;;;27.16;28.07;98351.44;8379583;28;20238;-77
2022/07/15 09:15:02;;;;;;;4.47;2.13;;;;;;;26.74;27.84;98348.88;8379511;28;20239;-77
2022/07/15 09:19:05;;;;;;;6.63;1.87;;;;;;;26.48;28.78;98360.38;8379796;28;20236;-77
2022/07/15 09:23:09;;;;;;;4.00;1.80;;;;;;;26.02;29.42;98351.84;8379503;28;20448;-76
2022/07/15 09:27:31;;;;;;;9.47;2.20;;;;;;;26.55;28.51;98356.09;8379262;28;20224;-76
2022/07/15 09:36:06;;;;;;;5.80;1.67;;;;;;;26.57;27.53;98364.72;8379060;28;20225;-75
2022/07/15 09:40:10;;;;;;;3.60;1.80;;;;;;;26.60;27.65;98364.44;8385400;28;20228;-77
2022/07/15 09:44:15;;;;;;;8.30;1.83;;;;;;;25.94;27.36;98356.09;8385073;28;20227;-78
2022/07/15 09:48:19;;;;;;;6.60;2.07;;;;;;;26.64;26.79;98351.69;8387580;28;20240;-78
2022/07/15 09:52:22;;;;;;;9.83;2.47;;;;;;;26.25;28.37;98363.56;8385132;28;20235;-78
2022/07/15 09:56:26;;;;;;;7.93;2.27;;;;;;;25.83;28.54;98363.47;8384835;28;20433;-77
2022/07/15 10:00:28;;;;;;;11.33;2.70;;;;;;;25.87;28.66;98362.16;8402640;28;20234;-76
2022/07/15 10:04:33;;;;;;;7.43;1.93;;;;;;;25.39;28.52;98361.63;8418075;28;20543;-78
2022/07/15 10:08:36;;;;;;;7.70;2.20;;;;;;;25.11;29.79;98368.78;8413832;28;20283;-78
2022/07/15 10:12:55;;;;;;;8.67;2.30;;;;;;;26.85;27.12;98361.88;8384289;28;20240;-78
2022/07/15 10:17:27;;;;;;;6.03;2.23;;;;;;;27.56;26.40;98354.31;8384232;28;20223;-78
2022/07/15 10:21:37;;;;;;;4.53;1.87;;;;;;;27.57;25.57;98348.84;8384159;28;20229;-78
2022/07/15 10:25:51;;;;;;;6.40;1.90;;;;;;;27.78;24.90;98342.16;8413100;28;20443;-77
2022/07/15 10:29:55;;;;;;;4.37;2.10;;;;;;;27.50;24.81;98340.69;8416691;28;20232;-77
2022/07/15 10:34:17;;;;;;;5.27;1.97;;;;;;;26.40;25.34;98337.28;8416729;28;20250;-77
2022/07/15 10:38:30;;;;;;;3.97;1.97;;;;;;;26.56;26.95;98339.19;8416705;28;20232;-77
2022/07/15 10:43:01;;;;;;;8.03;2.20;;;;;;;25.91;27.74;98345.84;8415306;28;20231;-77
2022/07/15 10:47:20;;;;;;;5.40;2.10;;;;;;;25.61;28.06;98355.03;8416587;28;20287;-77
2022/07/15 10:51:45;;;;;;;9.83;1.93;;;;;;;26.69;26.92;98347.53;8415939;28;20295;-77
2022/07/15 10:55:50;;;;;;;6.73;2.27;;;;;;;26.29;27.12;98341.06;8416302;28;20430;-76
2022/07/15 10:59:57;;;;;;;7.97;1.90;;;;;;;26.16;27.62;98351.28;8403344;28;20415;-76
2022/07/15 11:04:17;;;;;;;4.87;2.20;;;;;;;26.09;27.92;98344.94;8383384;28;20247;-76
2022/07/15 11:08:47;;;;;;;7.03;2.10;;;;;;;26.26;28.07;98345.84;8383158;28;20232;-76
2022/07/15 11:13:02;;;;;;;14.43;2.10;;;;;;;27.60;26.90;98331.72;8382309;28;20234;-75
2022/07/15 11:17:05;;;;;;;7.90;2.00;;;;;;;27.81;26.47;98337.31;8382288;28;20235;-76
2022/07/15 11:21:09;;;;;;;10.37;1.90;;;;;;;26.57;27.35;98332.84;8382322;28;20803;-77
2022/07/15 11:25:18;;;;;;;7.20;2.07;;;;;;;26.99;26.17;98331.16;8398659;28;20228;-75
2022/07/15 11:29:22;;;;;;;9.60;2.03;;;;;;;27.07;26.15;98318.72;8414971;28;20232;-75
2022/07/15 11:33:29;;;;;;;5.87;1.97;;;;;;;28.30;25.60;98311.63;8414793;28;20230;-75
2022/07/15 11:37:34;;;;;;;20.27;2.80;;;;;;;28.15;23.89;98308.84;8412271;28;20228;-76
2022/07/15 11:45:59;;;;;;;9.83;1.83;;;;;;;27.40;26.21;98308.13;8414708;28;20235;-73
2022/07/15 11:50:05;;;;;;;6.07;1.90;;;;;;;27.13;26.72;98311.94;8414305;28;20239;-74
2022/07/15 11:54:13;;;;;;;8.40;1.87;;;;;;;26.77;26.67;98308.69;8413966;28;20243;-73
2022/07/15 11:58:16;;;;;;;7.23;1.87;;;;;;;26.70;28.17;98304.03;8414043;28;20297;-74
2022/07/15 12:02:24;;;;;;;6.77;1.80;;;;;;;26.62;27.48;98314.66;8414198;28;20235;-72
2022/07/15 12:06:29;;;;;;;4.10;1.70;;;;;;;27.02;26.83;98301.63;8413922;28;20235;-74
2022/07/15 12:10:37;;;;;;;8.03;2.00;;;;;;;27.93;27.08;98295.28;8413582;28;20232;-74
2022/07/15 12:14:41;;;;;;;6.50;1.80;;;;;;;28.74;24.67;98287.13;8413753;28;20239;-75
2022/07/15 12:18:47;;;;;;;3.53;1.60;;;;;;;28.90;24.18;98289.69;8413557;28;20234;-74
2022/07/15 12:23:03;;;;;;;6.70;1.87;;;;;;;29.11;25.66;98289.03;8412978;28;20549;-74
2022/07/15 12:27:07;;;;;;;2.37;1.23;;;;;;;28.53;25.55;98293.06;8413442;28;20244;-74
2022/07/15 12:31:09;;;;;;;6.60;1.83;;;;;;;28.84;24.83;98293.03;8413616;28;20225;-74
2022/07/15 12:35:16;;;;;;;5.13;1.70;;;;;;;29.27;24.95;98289.94;8413295;28;20237;-73
2022/07/15 12:39:19;;;;;;;6.90;1.80;;;;;;;29.35;23.82;98287.19;8413271;28;20237;-74
2022/07/15 12:43:47;;;;;;;7.60;1.70;;;;;;;28.89;24.24;98288.00;8413189;28;20252;-75
2022/07/15 12:48:02;;;;;;;3.83;1.47;;;;;;;28.73;24.76;98288.09;8413104;28;20525;-78
2022/07/15 12:52:21;;;;;;;5.73;1.50;;;;;;;29.61;24.67;98289.44;8413022;28;20230;-75
2022/07/15 12:56:24;;;;;;;3.37;1.70;;;;;;;29.86;23.64;98287.38;8413218;28;20544;-75
2022/07/15 13:00:29;;;;;;;7.03;1.63;;;;;;;29.58;22.76;98285.28;8413200;28;20237;-75
2022/07/15 13:04:32;;;;;;;5.50;1.70;;;;;;;28.69;24.03;98278.81;8384013;28;20241;-75
2022/07/15 13:08:38;;;;;;;6.17;1.63;;;;;;;28.21;25.03;98281.53;8379576;28;20234;-75
2022/07/15 13:12:40;;;;;;;4.70;1.80;;;;;;;28.63;23.17;98275.84;8382061;28;20241;-75
2022/07/15 13:16:43;;;;;;;3.87;1.60;;;;;;;28.41;23.76;98274.78;8387270;28;20235;-76
2022/07/15 13:20:47;;;;;;;9.90;2.10;;;;;;;28.17;24.04;98280.22;8416203;28;20236;-76
2022/07/15 13:24:52;;;;;;;3.57;1.57;;;;;;;27.81;24.95;98281.44;8418347;28;20256;-76
2022/07/15 13:28:55;;;;;;;6.13;1.60;;;;;;;28.08;25.21;98271.41;8419013;28;20528;-76
2022/07/15 13:32:58;;;;;;;3.70;1.40;;;;;;;28.54;25.05;98260.94;8418610;28;20236;-75
2022/07/15 13:37:01;;;;;;;3.20;1.30;;;;;;;29.10;24.47;98267.88;8418227;28;20234;-76
2022/07/15 13:41:05;;;;;;;6.20;2.00;;;;;;;29.19;23.50;98261.50;8418474;28;20240;-76
2022/07/15 13:45:10;;;;;;;4.50;1.50;;;;;;;29.23;24.20;98249.44;8418331;28;20237;-76
2022/07/15 13:49:13;;;;;;;6.13;1.60;;;;;;;29.04;23.96;98253.41;8418317;28;20236;-76
2022/07/15 13:53:16;;;;;;;4.03;1.67;;;;;;;28.33;24.51;98244.69;8417880;28;20230;-76
2022/07/15 13:57:20;;;;;;;4.73;1.60;;;;;;;28.85;23.59;98260.06;8418110;28;20509;-74
2022/07/15 14:01:23;;;;;;;6.63;1.93;;;;;;;28.81;23.66;98253.44;8402651;28;20305;-76
2022/07/15 14:05:26;;;;;;;4.37;1.80;;;;;;;28.15;23.71;98255.59;8400705;28;20225;-75
2022/07/15 14:09:29;;;;;;;8.57;1.57;;;;;;;28.63;23.71;98256.34;8400418;28;20252;-76
2022/07/15 14:13:33;;;;;;;4.13;1.50;;;;;;;28.79;24.44;98258.09;8400320;28;20325;-76
2022/07/15 14:17:36;;;;;;;4.30;1.80;;;;;;;27.77;25.28;98258.03;8399937;28;20566;-76
2022/07/15 14:21:38;;;;;;;4.13;1.60;;;;;;;27.73;25.60;98254.06;8397574;28;20242;-76
2022/07/15 14:25:48;;;;;;;3.83;1.53;;;;;;;28.44;24.15;98255.78;8399497;28;20286;-75
2022/07/15 14:29:53;;;;;;;3.03;1.57;;;;;;;28.65;23.61;98249.88;8402818;28;20414;-76
2022/07/15 14:34:03;;;;;;;3.33;1.57;;;;;;;28.98;23.85;98243.47;8400257;28;20451;-76
2022/07/15 14:38:06;;;;;;;6.50;1.80;;;;;;;28.72;23.86;98252.66;8401847;28;20241;-75
2022/07/15 14:42:09;;;;;;;5.10;1.80;;;;;;;28.63;24.14;98246.53;8389008;28;20242;-75
2022/07/15 14:46:13;;;;;;;5.70;1.57;;;;;;;27.78;24.06;98246.38;8383516;28;20231;-75
2022/07/15 14:50:16;;;;;;;6.50;1.57;;;;;;;28.49;23.83;98246.44;8383676;28;20314;-76
2022/07/15 14:54:24;;;;;;;8.73;1.60;;;;;;;28.36;23.81;98239.03;8415781;28;20347;-76
2022/07/15 14:58:27;;;;;;;4.67;1.30;;;;;;;28.44;23.46;98238.97;8416511;28;20232;-76
2022/07/15 15:02:31;;;;;;;3.20;1.50;;;;;;;28.36;23.75;98228.38;8416359;28;20425;-78
2022/07/15 15:06:34;;;;;;;8.50;1.80;;;;;;;28.07;23.97;98236.00;8415761;28;20232;-77
2022/07/15 15:10:37;;;;;;;5.63;1.47;;;;;;;28.30;24.68;98245.06;8415710;28;20232;-77
2022/07/15 15:14:40;;;;;;;8.40;1.70;;;;;;;28.13;23.73;98234.47;8415645;28;20290;-77
2022/07/15 15:18:44;;;;;;;3.27;1.50;;;;;;;27.45;24.75;98235.81;8415586;28;20234;-77
2022/07/15 15:22:47;;;;;;;3.97;1.60;;;;;;;27.16;25.84;98236.31;8414938;28;20230;-77
2022/07/15 15:26:50;;;;;;;2.37;1.40;;;;;;;27.24;25.78;98236.31;8414980;28;20235;-76
2022/07/15 15:30:53;;;;;;;2.60;1.40;;;;;;;27.39;25.78;98234.66;8415042;28;20241;-77
2022/07/15 15:34:58;;;;;;;3.23;1.40;;;;;;;27.50;25.77;98231.66;8414600;28;20416;-77
2022/07/15 15:39:00;;;;;;;4.57;1.60;;;;;;;27.05;25.89;98243.63;8414910;28;20255;-76
2022/07/15 15:43:04;;;;;;;3.10;1.80;;;;;;;27.32;25.45;98241.63;8414723;28;20230;-78
2022/07/15 15:47:07;;;;;;;4.93;1.67;;;;;;;27.01;25.97;98231.66;8414709;28;20237;-76
2022/07/15 15:51:12;;;;;;;3.93;1.80;;;;;;;27.38;25.87;98225.03;8414529;28;20287;-77
2022/07/15 15:55:15;;;;;;;4.77;1.50;;;;;;;27.03;26.16;98219.03;8414558;28;20240;-77
2022/07/15 15:59:18;;;;;;;4.13;1.93;;;;;;;27.22;26.09;98212.56;8414174;28;20245;-77
2022/07/15 16:03:22;;;;;;;5.83;2.03;;;;;;;27.39;25.67;98212.56;8414339;28;20294;-77
2022/07/15 16:07:27;;;;;;;3.63;1.90;;;;;;;27.37;26.55;98212.72;8414198;28;20234;-77
2022/07/15 16:11:30;;;;;;;7.20;1.83;;;;;;;27.36;25.66;98216.41;8414134;28;20241;-78
2022/07/15 16:15:33;;;;;;;3.03;1.60;;;;;;;27.21;25.89;98208.25;8414157;28;20250;-78
2022/07/15 16:19:36;;;;;;;6.23;2.00;;;;;;;27.26;26.01;98210.41;8414131;28;20232;-77
2022/07/15 16:23:41;;;;;;;8.43;1.90;;;;;;;27.05;26.20;98206.41;8413641;28;20237;-78
2022/07/15 16:27:44;;;;;;;4.87;1.53;;;;;;;26.97;25.93;98211.75;8413703;28;20236;-77
2022/07/15 16:31:47;;;;;;;5.27;2.20;;;;;;;27.00;26.08;98210.59;8413326;28;20247;-77
2022/07/15 16:35:50;;;;;;;9.20;2.00;;;;;;;26.84;26.53;98211.41;8409566;28;20357;-77
2022/07/15 16:39:55;;;;;;;4.00;1.80;;;;;;;26.82;26.32;98211.56;8394546;28;20413;-77
2022/07/15 16:43:58;;;;;;;5.07;2.00;;;;;;;26.74;26.23;98210.75;8395560;28;20228;-76
2022/07/15 16:48:01;;;;;;;3.53;1.57;;;;;;;26.71;26.85;98206.59;8398811;28;20228;-77
2022/07/15 16:52:04;;;;;;;4.57;1.80;;;;;;;26.56;26.24;98206.41;8392133;28;20245;-77
2022/07/15 16:56:09;;;;;;;3.03;1.73;;;;;;;26.58;26.83;98201.75;8386669;28;20252;-76
2022/07/15 17:00:14;;;;;;;4.07;1.70;;;;;;;26.49;26.93;98203.53;8388972;28;20225;-76
2022/07/15 17:04:25;;;;;;;6.60;1.90;;;;;;;26.44;27.85;98211.16;8403827;28;20232;-76
2022/07/15 17:08:28;;;;;;;7.50;2.17;;;;;;;26.26;28.42;98207.81;8400778;28;20232;-74
2022/07/15 17:12:32;;;;;;;4.80;1.70;;;;;;;26.05;28.00;98202.94;8397794;28;20231;-77
2022/07/15 17:16:35;;;;;;;9.30;1.83;;;;;;;26.11;29.11;98202.31;8386194;28;20237;-76
2022/07/15 17:20:38;;;;;;;7.13;1.70;;;;;;;25.86;28.84;98204.81;8405664;28;20243;-76
2022/07/15 17:24:41;;;;;;;5.80;1.80;;;;;;;25.64;28.96;98205.38;8419171;28;20555;-77
2022/07/15 17:28:45;;;;;;;7.17;1.90;;;;;;;25.43;28.00;98211.88;8413786;28;20429;-74
2022/07/15 17:32:48;;;;;;;5.93;2.10;;;;;;;25.43;28.49;98205.75;8405255;28;20551;-76
2022/07/15 17:37:10;;;;;;;5.33;1.70;;;;;;;25.44;28.34;98202.97;8399304;28;20228;-75
2022/07/15 17:41:13;;;;;;;4.50;1.77;;;;;;;25.36;28.77;98208.22;8417513;28;20235;-75
2022/07/15 17:45:18;;;;;;;4.67;1.77;;;;;;;25.34;28.46;98204.88;8418666;28;20235;-76
2022/07/15 17:49:21;;;;;;;6.00;1.80;;;;;;;25.16;28.96;98213.66;8413435;28;20228;-75
2022/07/15 17:53:23;;;;;;;4.63;1.83;;;;;;;25.05;29.01;98205.97;8389021;28;20227;-73
2022/07/15 17:57:26;;;;;;;3.83;1.80;;;;;;;25.14;29.23;98206.88;8405127;28;20412;-74
2022/07/15 18:01:30;;;;;;;4.30;1.83;;;;;;;25.18;29.66;98218.81;8411979;28;20237;-77
2022/07/15 18:05:33;;;;;;;4.23;1.70;;;;;;;25.15;29.48;98213.81;8384930;28;20231;-76
2022/07/15 18:09:36;;;;;;;3.63;1.83;;;;;;;24.98;29.10;98215.53;8384537;28;20239;-77
2022/07/15 18:13:47;;;;;;;9.10;4.00;;;;;;;24.96;29.68;98214.88;8396832;28;20220;-76
2022/07/15 18:17:52;;;;;;;6.27;2.00;;;;;;;24.90;29.05;98218.97;8414503;28;20512;-73
2022/07/15 18:21:55;;;;;;;3.60;1.73;;;;;;;24.83;29.65;98217.91;8399348;28;20320;-76
2022/07/15 18:25:58;;;;;;;5.67;2.07;;;;;;;24.78;29.86;98220.97;8406856;28;20237;-75
2022/07/15 18:30:01;;;;;;;6.27;1.73;;;;;;;24.80;29.84;98225.31;8417144;28;20549;-75
2022/07/15 18:34:06;;;;;;;2.27;1.60;;;;;;;24.59;30.35;98221.13;8417034;28;20233;-75
2022/07/15 18:38:26;;;;;;;4.97;2.07;;;;;;;24.58;30.05;98215.03;8416603;28;20233;-75
2022/07/15 18:42:29;;;;;;;4.67;1.90;;;;;;;24.51;30.74;98216.59;8407341;28;20229;-78
2022/07/15 18:46:32;;;;;;;5.17;2.17;;;;;;;24.50;30.91;98217.56;8402346;28;20230;-76
2022/07/15 18:50:36;;;;;;;6.53;2.10;;;;;;;24.38;30.73;98222.22;8386081;28;20544;-82
2022/07/15 18:54:40;;;;;;;8.27;1.90;;;;;;;24.32;31.22;98220.19;8383289;28;20246;-76
2022/07/15 18:58:42;;;;;;;15.37;2.70;;;;;;;24.38;31.09;98219.56;8394279;28;20253;-75
2022/07/15 19:02:46;;;;;;;6.60;1.90;;;;;;;24.25;31.02;98220.91;8397684;28;20224;-75
2022/07/15 19:06:51;;;;;;;6.17;2.07;;;;;;;24.19;31.37;98232.94;8415372;28;20519;-75
2022/07/15 19:10:54;;;;;;;5.43;1.93;;;;;;;24.07;31.59;98232.31;8415363;28;20227;-74
2022/07/15 19:14:56;;;;;;;5.77;1.90;;;;;;;23.93;31.30;98227.50;8415866;28;20230;-74
2022/07/15 19:19:06;;;;;;;4.53;2.20;;;;;;;23.90;31.69;98241.84;8415358;28;20237;-74
2022/07/15 19:23:10;;;;;;;6.93;1.80;;;;;;;23.87;31.38;98250.06;8415570;28;20229;-75
2022/07/15 19:27:13;;;;;;;3.63;2.00;;;;;;;23.82;31.73;98257.63;8415308;28;20514;-76
2022/07/15 19:31:16;;;;;;;5.67;2.20;;;;;;;23.83;31.79;98253.97;8415118;28;20219;-75
2022/07/15 19:35:19;;;;;;;6.40;2.00;;;;;;;23.74;31.77;98266.25;8415218;28;20230;-75